This is the latest recevied weather packets stored in our database for station/object DL1AIE-13. If no packets are shown the sender has not sent any weather packets the latest 1 day(s).
| Time | Temp. | Humidity | Pressure | Rain* | Wind** | Luminosity | Snow |
|---|---|---|---|---|---|---|---|
| 1777997246 | 15° C | 95% | 1007.6 hPa | 0.51 mm | 0.89 m/s, 221° | - | - |
| 1777996640 | 15° C | 94% | 1007.6 hPa | 0.25 mm | 1.79 m/s, 261° | - | - |
| 1777996036 | 15.56° C | 93% | 1007.5 hPa | 0 mm | 3.13 m/s, 250° | - | - |
| 1777995453 | 15.56° C | 92% | 1007.4 hPa | 0 mm | 2.68 m/s, 251° | - | - |
| 1777994849 | 15.56° C | 91% | 1007.3 hPa | 0 mm | 2.68 m/s, 255° | - | - |
| 1777994245 | 15.56° C | 88% | 1007.4 hPa | 0 mm | 2.68 m/s, 258° | - | - |
| 1777993642 | 15.56° C | 89% | 1007.3 hPa | 0 mm | 2.68 m/s, 269° | - | - |
| 1777993046 | 15.56° C | 88% | 1007.2 hPa | 0 mm | 3.58 m/s, 257° | - | - |
| 1777992455 | 15.56° C | 88% | 1007.2 hPa | 0 mm | 4.02 m/s, 257° | - | - |
| 1777991851 | 16.67° C | 82% | 1007.3 hPa | 0 mm | 4.02 m/s, 258° | - | - |
| 1777991255 | 18.33° C | 76% | 1007.1 hPa | 0 mm | 2.68 m/s, 236° | - | - |
| 1777990644 | 18.33° C | 74% | 1006.9 hPa | 0 mm | 1.34 m/s, 51° | - | - |
| 1777990041 | 18.89° C | 72% | 1007 hPa | 0 mm | 1.79 m/s, 57° | - | - |
| 1777989437 | 20° C | 65% | 1007 hPa | 0 mm | 0 m/s | - | - |
| 1777988854 | 20° C | 62% | 1007.1 hPa | 0 mm | 0 m/s | - | - |
| 1777988250 | 20.56° C | 63% | 1007.2 hPa | 0 mm | 0 m/s | - | - |
| 1777986439 | 20° C | 59% | 1007.3 hPa | 0 mm | 0.89 m/s, 336° | - | - |
| 1777985836 | 20° C | 59% | 1007.2 hPa | 0 mm | 0.89 m/s, 333° | - | - |
| 1777985252 | 20° C | 60% | 1007.2 hPa | 0 mm | 1.34 m/s, 327° | - | - |
| 1777984649 | 21.11° C | 56% | 1007.5 hPa | 0 mm | 0.89 m/s, 320° | - | - |
| 1777984048 | 21.67° C | 57% | 1007.5 hPa | 0 mm | 0.89 m/s, 334° | - | - |
| 1777983442 | 21.11° C | 58% | 1007.6 hPa | 0 mm | 0.45 m/s, 356° | - | - |
| 1777982838 | 21.11° C | 59% | 1007.5 hPa | 0 mm | 1.34 m/s, 341° | - | - |
| 1777982255 | 21.67° C | 55% | 1007.7 hPa | 0 mm | 0.45 m/s, 343° | - | - |
| 1777981651 | 20.56° C | 59% | 1007.9 hPa | 0 mm | 1.79 m/s, 325° | - | - |
* Rain latest hour (hover to see other rain measurements)
** Current wind speed in m/s (hover to see current wind gust speed)